Weather observations for the past three days for
Ogden-Hinckley Airport
Imperial (Metric)
Date Time (mdt) Wind (mph) Vis. (mi.) Weather Sky Cond. Temperature (ºF) Relative Humidity Wind Chill (°F) Heat Index (°F) Pressure Precipitation (in)
Air Dwpt 6 hour altimeter (in) sea level (mb) 1 hr 3 hr 6 hr
Max. Min.
04 07:53 S 12 10.00 Fair CLR 54 28.9 38% 29.83 1006.0
04 06:53 S 7 10.00 Fair CLR 50 28 43% 48 29.83 1006.0
04 05:53 S 9 10.00 Fair CLR 48.9 28 57.9 48.9 44% 45 29.83 1006.0
04 04:53 SE 6 10.00 Fair CLR 53.1 27 37% 29.83 1005.6
04 03:53 S 10 10.00 Fair CLR 57.9 27 31% 29.81 1004.8
04 02:53 S 9 10.00 Fair CLR 54 26.1 34% 29.79 1004.3
04 01:53 S 6 10.00 Fair CLR 55.9 26.1 32% 29.8 1004.6
04 00:53 S 10 10.00 Fair CLR 57 26.1 30% 29.8 1004.5
03 23:53 S 8 10.00 Fair CLR 57 28 75 57 33% 29.8 1004.7
03 22:53 S 8 10.00 Fair CLR 59 28 31% 29.82 1005.5
03 21:53 S 5 10.00 Fair CLR 64 25 23% 29.82 1005.5
03 20:53 N 5 10.00 Fair CLR 66.9 24.1 20% 29.82 1005.4
03 19:53 N 5 10.00 Fair CLR 69.1 24.1 18% 29.83 1005.9
03 18:53 NW 9 10.00 Fair CLR 73 21.9 15% 29.84 1006.5
03 17:53 W 5 10.00 Fair CLR 75 21.9 75.9 70 14% 75 29.85 1006.8
03 16:53 NW 9 10.00 Fair CLR 75.9 19 12% 75 29.87 1007.2
03 15:53 Vrbl 5 10.00 Fair CLR 73.9 15.1 10% 29.9 1008.1
03 14:53 Calm 10.00 Fair CLR 73 21 14% 29.93 1009.2
03 13:53 SW 6 10.00 Fair CLR 73.9 19 12% 29.95 1009.7
03 12:53 SE 3 10.00 Fair CLR 73 19.9 13% 29.97 1010.5
03 11:53 Calm 10.00 Fair CLR 70 27 70 48 20% 29.99 1011.4
03 10:53 SE 3 10.00 Fair CLR 64.9 27 24% 30.01 1012.4
03 09:53 Vrbl 3 10.00 Fair CLR 62.1 30.9 31% 30.02 1012.5
03 08:53 SW 5 10.00 Fair CLR 59 26.1 28% 30.01 1012.3
03 07:53 S 6 10.00 Fair CLR 52 28 40% 30.01 1012.7
03 06:53 S 9 10.00 Fair CLR 48.9 27 43% 45 30 1012.4
03 05:53 S 10 10.00 Fair CLR 48.9 27 55 48.9 43% 45 30 1012.0
03 04:53 S 8 10.00 Fair CLR 48.9 27 43% 46 30.01 1012.7
03 03:53 S 12 10.00 Fair CLR 52 27 38% 30.01 1012.5
03 02:53 S 8 10.00 Fair CLR 51.1 28 41% 30.01 1012.5
03 01:53 S 7 10.00 Fair CLR 53.1 28 38% 30.02 1012.7
03 00:53 S 9 10.00 Fair CLR 55 27 34% 30.01 1012.1
02 23:53 S 9 10.00 Fair CLR 55 28 71.1 54 36% 30.01 1012.3
02 22:53 S 7 10.00 Fair CLR 55 28.9 37% 30.02 1012.7
02 21:53 SE 5 10.00 Fair CLR 61 27 27% 30.02 1012.9
02 20:53 NE 5 10.00 Fair CLR 64.9 24.1 21% 30.01 1012.6
02 19:53 N 7 10.00 Fair CLR 66 24.1 20% 30.01 1012.8
02 18:53 W 6 10.00 Fair CLR 69.1 21 16% 30.02 1013.1
02 17:53 N 7 10.00 Fair CLR 71.1 19.9 72 66.9 14% 30.02 1013.3
02 16:53 NW 8 10.00 Fair CLR 71.1 21.9 16% 30.04 1013.9
02 15:53 Calm 10.00 Fair CLR 70 19.9 15% 30.07 1014.9
02 14:53 Calm 10.00 Fair CLR 70 23 17% 30.09 1015.4
02 13:53 W 9 10.00 Fair CLR 69.1 21 16% 30.11 1016.3
02 12:53 W 8 10.00 Fair CLR 70 23 17% 30.13 1016.7
02 11:53 S 7 10.00 Fair CLR 68 19.9 68 44.1 16% 30.15 1017.3
02 10:53 Calm 10.00 Fair CLR 64.9 21.9 19% 30.15 1017.6
02 09:53 Calm 10.00 Fair CLR 59 24.1 26% 30.16 1018.0
02 08:53 S 5 10.00 Fair CLR 54 24.1 31% 30.16 1018.4
02 07:53 S 6 10.00 Fair CLR 48.9 25 39% 47 30.15 1018.2
02 06:53 S 10 10.00 Fair CLR 44.1 24.1 45% 39 30.14 1017.8
02 05:53 S 12 10.00 Fair CLR 44.1 24.1 51.1 44.1 45% 39 30.13 1017.6
02 04:53 S 9 10.00 Fair CLR 45 26.1 48% 41 30.14 1017.8
02 03:53 S 10 10.00 Fair CLR 46 28 50% 42 30.13 1017.6
02 02:53 S 13 10.00 Fair CLR 50 26.1 39% 46 30.13 1017.1
02 01:53 S 7 10.00 Fair CLR 46.9 28.9 50% 44 30.13 1017.2
02 00:53 S 10 10.00 Fair CLR 50 28.9 44% 46 30.13 1017.3
01 23:53 S 10 10.00 Fair CLR 51.1 30 66 51.1 45% 30.12 1017.1
01 22:53 S 9 10.00 Fair CLR 52 33.1 49% 30.12 1017.2
01 21:53 S 6 10.00 Fair CLR 55 30.9 40% 30.11 1016.6
01 20:53 SW 8 10.00 Fair CLR 55.9 34 44% 30.09 1015.8
01 19:53 NW 6 10.00 Fair CLR 63 26.1 25% 30.08 1015.4
01 18:53 NW 9 10.00 Fair CLR 66 25 21% 30.07 1015.5
01 17:53 NW 10 10.00 Fair CLR 66 24.1 66 60.1 20% 30.08 1015.6
01 16:53 N 8 G 20 10.00 Fair CLR 64.9 24.1 21% 30.09 1015.7
01 15:53 NW 9 G 20 10.00 Fair CLR 64 23 21% 30.11 1016.3
01 14:53 Vrbl 3 10.00 Fair CLR 63 21.9 21% 30.12 1016.8
01 13:53 N 8 10.00 Fair CLR 64 16 15% 30.12 1016.8
01 12:53 W 6 10.00 Fair CLR 62.1 17.1 17% 30.14 1017.3
01 11:53 N 8 10.00 Fair CLR 61 17.1 61 41 18% 30.15 1017.8
01 10:53 SW 7 10.00 Fair CLR 57.9 19 22% 30.16 1018.1
01 09:53 Calm 10.00 Fair CLR 57 19.9 24% 30.16 1018.0
01 08:53 NE 6 10.00 Fair CLR 55 21.9 28% 30.15 1017.8
Date Time (mdt) Wind (mph) Vis. (mi.) Weather Sky Cond. Air Dwpt Max. Min. Relative Humidity Wind Chill (°F) Heat Index (°F) altimeter (in) sea level (mb) 1 hr 3 hr 6 hr
6 hour
Temperature (ºF) Pressure Precipitation (in)